createdAt,value
2023-05-22T00:00:54.892Z,24.23
2023-05-22T00:03:24.575Z,31.80
2023-05-22T00:05:53.265Z,29.15
2023-05-22T00:08:21.177Z,23.77
2023-05-22T00:10:49.058Z,22.52
2023-05-22T00:13:18.324Z,24.83
2023-05-22T00:15:46.318Z,23.58
2023-05-22T00:18:14.768Z,29.38
2023-05-22T00:20:42.712Z,26.88
2023-05-22T00:23:12.144Z,23.77
2023-05-22T00:25:41.485Z,27.48
2023-05-22T00:28:09.510Z,24.67
2023-05-22T00:30:39.469Z,27.48
2023-05-22T00:33:07.801Z,20.98
2023-05-22T00:35:35.795Z,34.00
2023-05-22T00:38:04.784Z,28.08
2023-05-22T00:40:32.836Z,26.48
2023-05-22T00:43:00.776Z,28.33
2023-05-22T00:45:29.065Z,29.15
2023-05-22T00:47:58.465Z,22.10
2023-05-22T00:50:26.532Z,29.58
2023-05-22T00:52:54.569Z,25.23
2023-05-22T00:55:22.765Z,24.08
2023-05-22T00:57:51.934Z,22.58
2023-05-22T01:00:20.571Z,31.55
2023-05-22T01:02:48.746Z,24.38
2023-05-22T01:05:18.913Z,29.30
2023-05-22T01:07:46.940Z,31.50
2023-05-22T01:10:14.907Z,31.15
2023-05-22T01:12:54.134Z,26.50
2023-05-22T01:15:32.147Z,29.13
2023-05-22T01:18:11.135Z,29.05
2023-05-22T01:20:48.755Z,34.90
2023-05-22T01:23:35.903Z,33.08
2023-05-22T01:26:37.553Z,26.25
2023-05-22T01:29:16.968Z,32.67
2023-05-22T01:31:48.470Z,34.53
2023-05-22T01:34:18.321Z,30.23
2023-05-22T01:36:47.776Z,30.98
2023-05-22T01:39:16.779Z,35.20
2023-05-22T01:41:45.624Z,27.80
2023-05-22T01:44:13.585Z,32.97
2023-05-22T01:46:42.069Z,26.52
2023-05-22T01:49:11.428Z,30.45
2023-05-22T01:51:48.610Z,29.45
2023-05-22T01:54:24.078Z,28.83
2023-05-22T01:56:56.096Z,28.45
2023-05-22T01:59:31.403Z,32.60
2023-05-22T02:02:04.710Z,30.38
2023-05-22T02:04:36.368Z,42.10
2023-05-22T02:07:05.120Z,34.10
2023-05-22T02:09:34.753Z,33.28
2023-05-22T02:12:03.431Z,35.20
2023-05-22T02:14:31.555Z,32.70
2023-05-22T02:17:02.029Z,37.55
2023-05-22T02:19:30.003Z,36.78
2023-05-22T02:21:59.289Z,36.70
2023-05-22T02:24:27.269Z,34.85
2023-05-22T02:26:55.210Z,31.00
2023-05-22T02:29:23.204Z,36.97
2023-05-22T02:31:51.251Z,33.35
2023-05-22T02:34:19.278Z,27.70
2023-05-22T02:36:47.724Z,32.25
2023-05-22T02:39:17.051Z,33.55
2023-05-22T02:41:45.095Z,42.30
2023-05-22T02:44:13.032Z,42.65
2023-05-22T02:46:40.990Z,32.67
2023-05-22T02:49:08.955Z,38.85
2023-05-22T02:51:36.857Z,39.15
2023-05-22T02:54:05.006Z,36.13
2023-05-22T02:56:34.358Z,40.38
2023-05-22T02:59:03.108Z,33.85
2023-05-22T03:01:31.161Z,40.13
2023-05-22T03:03:59.224Z,35.63
2023-05-22T03:06:27.272Z,41.22
2023-05-22T03:08:55.225Z,37.47
2023-05-22T03:11:23.249Z,39.40
2023-05-22T03:13:52.564Z,38.72
2023-05-22T03:16:20.617Z,34.05
2023-05-22T03:18:48.720Z,36.40
2023-05-22T03:21:16.638Z,35.13
2023-05-22T03:23:46.614Z,38.95
2023-05-22T03:26:14.665Z,35.53
2023-05-22T03:28:42.705Z,40.97
2023-05-22T03:31:12.034Z,34.03
2023-05-22T03:33:39.992Z,37.38
2023-05-22T03:36:09.625Z,37.78
2023-05-22T03:38:37.560Z,41.15
2023-05-22T03:41:05.544Z,39.70
2023-05-22T03:43:33.453Z,37.75
2023-05-22T03:46:01.425Z,33.63
2023-05-22T03:48:31.331Z,38.35
2023-05-22T03:50:59.327Z,35.55
2023-05-22T03:53:27.283Z,31.52
2023-05-22T03:55:55.209Z,32.63
2023-05-22T03:58:25.500Z,30.80
2023-05-22T04:00:54.200Z,30.08
2023-05-22T04:03:22.637Z,27.75
2023-05-22T04:05:52.408Z,27.27
2023-05-22T04:08:20.537Z,28.67
2023-05-22T04:10:48.785Z,29.40
2023-05-22T04:13:17.780Z,25.10
2023-05-22T04:15:46.799Z,28.30
2023-05-22T04:18:15.529Z,30.77
2023-05-22T04:20:43.745Z,28.40
2023-05-22T04:23:13.248Z,27.52
2023-05-22T04:25:41.226Z,31.48
2023-05-22T04:28:09.356Z,26.50
2023-05-22T04:30:40.210Z,35.95
2023-05-22T04:33:08.716Z,28.73
2023-05-22T04:35:36.808Z,25.90
2023-05-22T04:38:06.220Z,28.70
2023-05-22T04:40:38.095Z,25.80
2023-05-22T04:43:06.377Z,29.35
2023-05-22T04:45:35.482Z,33.90
2023-05-22T04:48:04.081Z,36.75
2023-05-22T04:50:32.636Z,36.08
2023-05-22T04:53:04.477Z,34.72
2023-05-22T04:55:34.003Z,32.33
2023-05-22T04:58:03.738Z,41.53
2023-05-22T05:00:31.755Z,37.22
2023-05-22T05:03:00.381Z,39.05
2023-05-22T05:05:28.621Z,39.92
2023-05-22T05:07:56.607Z,37.28
2023-05-22T05:10:24.604Z,41.45
2023-05-22T05:12:52.653Z,44.35
2023-05-22T05:15:23.672Z,44.28
2023-05-22T05:17:51.743Z,41.30
2023-05-22T05:20:20.031Z,48.42
2023-05-22T05:22:48.025Z,43.97
2023-05-22T05:25:16.012Z,48.85
2023-05-22T05:27:43.980Z,42.75
2023-05-22T05:30:12.251Z,40.58
2023-05-22T05:32:41.584Z,36.78
2023-05-22T05:35:10.844Z,42.63
2023-05-22T05:37:38.857Z,50.40
2023-05-22T05:40:08.297Z,47.33
2023-05-22T05:42:36.285Z,44.70
2023-05-22T05:45:04.272Z,43.22
2023-05-22T05:47:32.248Z,45.42
2023-05-22T05:50:01.585Z,43.35
2023-05-22T05:52:32.583Z,49.00
2023-05-22T05:55:01.031Z,43.90
2023-05-22T05:57:29.798Z,46.08
2023-05-22T05:59:57.804Z,40.70
2023-05-22T06:02:25.801Z,37.92
2023-05-22T06:04:53.848Z,41.47
2023-05-22T06:07:24.253Z,44.65
2023-05-22T06:09:52.545Z,41.28
2023-05-22T06:12:20.535Z,40.75
2023-05-22T06:14:48.462Z,38.33
2023-05-22T06:17:16.467Z,42.67
2023-05-22T06:19:44.536Z,48.10
2023-05-22T06:22:12.564Z,41.13
2023-05-22T06:24:41.935Z,44.40
2023-05-22T06:27:09.904Z,38.35
2023-05-22T06:29:37.975Z,47.17
2023-05-22T06:32:06.657Z,46.40
2023-05-22T06:34:34.702Z,42.97
2023-05-22T06:37:03.748Z,39.75
2023-05-22T06:39:32.106Z,39.00
2023-05-22T06:42:01.540Z,46.10
2023-05-22T06:44:29.505Z,37.88
2023-05-22T06:46:58.189Z,45.90
2023-05-22T06:49:26.388Z,36.72
2023-05-22T06:51:54.449Z,44.10
2023-05-22T06:54:22.475Z,37.75
2023-05-22T06:56:50.547Z,33.53
2023-05-22T06:59:19.966Z,40.22
2023-05-22T07:01:47.974Z,33.38
2023-05-22T07:04:16.170Z,32.35
2023-05-22T07:06:45.646Z,43.13
2023-05-22T07:09:15.414Z,42.08
2023-05-22T07:11:43.954Z,35.50
2023-05-22T07:14:12.877Z,38.25
2023-05-22T07:16:43.208Z,31.08
2023-05-22T07:19:12.050Z,35.90
2023-05-22T07:21:40.092Z,35.60
2023-05-22T07:24:09.188Z,35.35
2023-05-22T07:26:37.417Z,32.10
2023-05-22T07:29:05.965Z,31.13
2023-05-22T07:31:34.504Z,36.78
2023-05-22T07:34:03.900Z,33.40
2023-05-22T07:36:31.935Z,36.30
2023-05-22T07:38:59.837Z,34.42
2023-05-22T07:41:28.273Z,35.85
2023-05-22T07:43:56.223Z,37.00
2023-05-22T07:46:24.276Z,33.28
2023-05-22T07:48:52.309Z,30.58
2023-05-22T07:51:21.745Z,36.00
2023-05-22T07:53:49.661Z,33.85
2023-05-22T07:56:17.635Z,33.03
2023-05-22T07:58:47.999Z,30.23
2023-05-22T08:01:19.326Z,32.35
2023-05-22T08:03:47.406Z,35.60
2023-05-22T08:06:16.195Z,31.15
2023-05-22T08:08:45.545Z,32.75
2023-05-22T08:11:13.683Z,33.30
2023-05-22T08:13:41.662Z,30.70
2023-05-22T08:16:09.941Z,29.00
2023-05-22T08:18:37.875Z,28.75
2023-05-22T08:21:06.152Z,27.42
2023-05-22T08:23:36.310Z,30.77
2023-05-22T08:26:06.045Z,33.67
2023-05-22T08:28:33.980Z,30.20
2023-05-22T08:31:02.586Z,25.48
2023-05-22T08:33:30.540Z,25.33
2023-05-22T08:35:58.518Z,27.80
2023-05-22T08:38:26.447Z,26.63
2023-05-22T08:40:55.815Z,27.85
2023-05-22T08:43:25.489Z,26.40
2023-05-22T08:46:00.869Z,26.10
2023-05-22T08:48:31.768Z,24.30
2023-05-22T08:51:04.044Z,27.85
2023-05-22T08:56:04.464Z,23.55
2023-05-22T08:58:36.082Z,23.05
2023-05-22T09:01:05.408Z,27.70
2023-05-22T09:03:34.330Z,25.27
2023-05-22T09:06:02.875Z,24.13
2023-05-22T09:08:30.834Z,31.13
2023-05-22T09:10:58.806Z,24.15
2023-05-22T09:13:28.477Z,24.52
2023-05-22T09:16:01.754Z,30.50
2023-05-22T09:18:30.808Z,25.23
2023-05-22T09:20:59.966Z,26.27
2023-05-22T09:23:29.442Z,28.27
2023-05-22T09:25:58.295Z,27.60
2023-05-22T09:28:26.769Z,21.17
2023-05-22T09:30:56.506Z,28.00
2023-05-22T09:33:26.032Z,22.52
2023-05-22T09:35:54.639Z,21.02
2023-05-22T09:38:24.284Z,23.65
2023-05-22T09:40:54.868Z,27.67
2023-05-22T09:43:23.760Z,23.70
2023-05-22T09:45:57.977Z,28.92
2023-05-22T09:48:27.603Z,26.27
2023-05-22T09:50:56.298Z,27.05
2023-05-22T09:53:28.551Z,23.52
2023-05-22T09:58:28.209Z,23.27
2023-05-22T10:00:57.644Z,25.73
2023-05-22T10:03:27.966Z,26.25
2023-05-22T10:05:57.150Z,27.25
2023-05-22T10:08:28.695Z,26.55
2023-05-22T10:10:57.857Z,23.75
2023-05-22T10:13:27.546Z,25.40
2023-05-22T10:15:56.047Z,23.33
2023-05-22T10:18:25.849Z,27.60
2023-05-22T10:20:55.361Z,26.60
2023-05-22T10:23:23.582Z,31.90
2023-05-22T10:25:51.826Z,26.33
2023-05-22T10:28:25.443Z,20.00
2023-05-22T10:31:01.366Z,25.73
2023-05-22T10:33:34.931Z,27.85
2023-05-22T10:36:08.722Z,27.23
2023-05-22T10:38:48.385Z,23.80
2023-05-22T10:41:17.257Z,26.13
2023-05-22T10:43:49.135Z,21.70
2023-05-22T10:46:17.611Z,23.17
2023-05-22T10:48:47.162Z,23.85
2023-05-22T10:51:20.138Z,24.35
2023-05-22T10:53:53.206Z,27.75
2023-05-22T10:56:23.630Z,27.20
2023-05-22T10:59:04.892Z,22.65
2023-05-22T11:01:35.990Z,25.50
2023-05-22T11:04:12.702Z,25.33
2023-05-22T11:06:45.757Z,19.80
2023-05-22T11:09:30.673Z,21.38
2023-05-22T11:12:19.253Z,17.92
2023-05-22T11:14:52.185Z,24.77
2023-05-22T11:17:23.185Z,22.25
2023-05-22T11:20:07.424Z,25.75
2023-05-22T11:22:38.856Z,24.73
2023-05-22T11:25:09.564Z,27.47
2023-05-22T11:27:39.085Z,24.55
2023-05-22T11:30:09.585Z,20.42
2023-05-22T11:32:38.211Z,23.00
2023-05-22T11:35:08.505Z,22.48
2023-05-22T11:37:41.628Z,21.15
2023-05-22T11:40:10.819Z,21.65
2023-05-22T11:42:39.204Z,22.35
2023-05-22T11:45:08.485Z,25.20
2023-05-22T11:47:36.897Z,23.30
2023-05-22T11:50:07.073Z,28.67
2023-05-22T11:52:36.108Z,22.83
2023-05-22T11:55:06.629Z,22.35
2023-05-22T11:57:35.305Z,23.73
2023-05-22T12:00:04.352Z,24.38
2023-05-22T12:02:32.537Z,25.25
2023-05-22T12:05:00.655Z,25.92
2023-05-22T12:07:29.523Z,24.02
2023-05-22T12:09:58.382Z,24.33
2023-05-22T12:12:27.738Z,28.48
2023-05-22T12:14:55.634Z,23.52
2023-05-22T12:17:24.150Z,22.98
2023-05-22T12:19:52.135Z,25.67
2023-05-22T12:22:23.301Z,23.95
2023-05-22T12:24:53.505Z,23.38
2023-05-22T12:27:21.516Z,26.75
2023-05-22T12:29:52.844Z,26.42
2023-05-22T12:32:23.796Z,21.55
2023-05-22T12:34:52.074Z,24.85
2023-05-22T12:37:21.084Z,25.63
2023-05-22T12:39:56.336Z,25.05
2023-05-22T12:42:24.805Z,18.80
2023-05-22T12:44:57.344Z,21.40
2023-05-22T12:47:26.075Z,19.38
2023-05-22T12:49:54.421Z,18.98
2023-05-22T12:52:22.436Z,17.20
2023-05-22T12:54:51.762Z,18.80
2023-05-22T12:57:19.677Z,18.80
2023-05-22T12:59:47.609Z,18.90
2023-05-22T13:02:16.989Z,16.23
2023-05-22T13:04:44.978Z,16.98
2023-05-22T13:07:13.294Z,17.75
2023-05-22T13:09:41.350Z,15.38
2023-05-22T13:12:10.476Z,14.48
2023-05-22T13:14:40.523Z,12.30
2023-05-22T13:17:09.202Z,12.13
2023-05-22T13:19:38.635Z,13.27
2023-05-22T13:22:07.574Z,13.77
2023-05-22T13:24:35.644Z,15.68
2023-05-22T13:27:03.694Z,16.65
2023-05-22T13:29:31.706Z,13.98
2023-05-22T13:31:59.705Z,13.38
2023-05-22T13:34:27.808Z,14.05
2023-05-22T13:36:57.365Z,11.15
2023-05-22T13:39:25.363Z,11.48
2023-05-22T13:41:53.583Z,12.25
2023-05-22T13:44:21.844Z,10.43
2023-05-22T13:46:49.924Z,10.43
2023-05-22T13:49:17.901Z,11.02
2023-05-22T13:51:45.899Z,10.55
2023-05-22T13:54:15.272Z,9.32
2023-05-22T13:56:43.222Z,9.77
2023-05-22T13:59:11.229Z,9.85
2023-05-22T14:01:39.458Z,9.32
2023-05-22T14:04:07.529Z,9.82
2023-05-22T14:06:35.498Z,11.20
2023-05-22T14:09:06.031Z,8.20
2023-05-22T14:11:35.399Z,11.82
2023-05-22T14:14:03.414Z,10.88
2023-05-22T14:16:31.518Z,11.52
2023-05-22T14:19:00.645Z,8.98
2023-05-22T14:21:28.935Z,9.65
2023-05-22T14:23:56.916Z,10.60
2023-05-22T14:26:25.154Z,7.93
2023-05-22T14:28:54.960Z,10.02
2023-05-22T14:31:22.968Z,10.55
2023-05-22T14:33:50.961Z,9.77
2023-05-22T14:36:19.014Z,9.52
2023-05-22T14:38:46.978Z,12.40
2023-05-22T14:41:14.917Z,9.68
2023-05-22T14:43:42.847Z,10.80
2023-05-22T14:46:12.449Z,9.75
2023-05-22T14:48:40.419Z,11.13
2023-05-22T14:51:08.386Z,8.25
2023-05-22T14:53:36.331Z,9.13
2023-05-22T14:56:04.729Z,9.98
2023-05-22T14:58:32.961Z,9.10
2023-05-22T15:01:01.104Z,6.97
2023-05-22T15:03:31.445Z,8.73
2023-05-22T15:05:59.447Z,8.95
2023-05-22T15:08:27.365Z,7.32
2023-05-22T15:10:55.332Z,10.63
2023-05-22T15:13:23.265Z,12.35
2023-05-22T15:15:51.274Z,11.77
2023-05-22T15:18:19.824Z,11.20
2023-05-22T15:20:49.113Z,9.05
2023-05-22T15:23:17.103Z,10.63
2023-05-22T15:25:45.066Z,9.23
2023-05-22T15:28:12.990Z,9.85
2023-05-22T15:30:43.491Z,8.25
2023-05-22T15:33:11.712Z,7.03
2023-05-22T15:35:40.834Z,7.75
2023-05-22T15:38:12.396Z,8.13
2023-05-22T15:40:40.508Z,9.82
2023-05-22T15:43:08.646Z,7.65
2023-05-22T15:45:41.385Z,6.70
2023-05-22T15:48:09.471Z,6.45
2023-05-22T15:50:37.432Z,6.95
2023-05-22T15:53:05.409Z,6.95
2023-05-22T15:55:35.424Z,8.52
2023-05-22T15:58:06.091Z,6.75
2023-05-22T16:00:38.604Z,7.97
2023-05-22T16:03:08.355Z,6.65
2023-05-22T16:05:36.911Z,6.82
2023-05-22T16:08:06.818Z,6.78
2023-05-22T16:10:36.311Z,6.05
2023-05-22T16:13:06.134Z,6.07
2023-05-22T16:15:34.636Z,6.63
2023-05-22T16:18:02.651Z,5.82
2023-05-22T16:20:30.699Z,6.40
2023-05-22T16:22:58.660Z,7.32
2023-05-22T16:25:26.803Z,5.60
2023-05-22T16:27:56.183Z,6.72
2023-05-22T16:30:24.091Z,10.52
2023-05-22T16:32:52.105Z,8.25
2023-05-22T16:35:22.037Z,8.07
2023-05-22T16:37:50.151Z,6.25
2023-05-22T16:40:18.595Z,9.93
2023-05-22T16:42:47.369Z,7.68
2023-05-22T16:45:16.683Z,8.32
2023-05-22T16:47:44.644Z,8.48
2023-05-22T16:50:12.726Z,8.02
2023-05-22T16:52:40.739Z,10.00
2023-05-22T16:55:09.911Z,9.05
2023-05-22T16:57:37.874Z,13.25
2023-05-22T17:00:07.582Z,9.55
2023-05-22T17:02:37.544Z,8.57
2023-05-22T17:05:06.313Z,8.30
2023-05-22T17:07:34.377Z,8.90
2023-05-22T17:10:02.374Z,9.88
2023-05-22T17:12:30.338Z,11.73
2023-05-22T17:14:58.289Z,11.27
2023-05-22T17:17:26.276Z,12.00
2023-05-22T17:19:55.640Z,10.85
2023-05-22T17:22:23.642Z,12.30
2023-05-22T17:24:51.715Z,11.02
2023-05-22T17:27:34.436Z,10.43
2023-05-22T17:30:04.489Z,12.48
2023-05-22T17:32:32.544Z,10.35
2023-05-22T17:35:02.955Z,12.82
2023-05-22T17:37:30.905Z,12.32
2023-05-22T17:39:58.870Z,12.23
2023-05-22T17:42:26.883Z,12.80
2023-05-22T17:44:54.877Z,14.02
2023-05-22T17:47:22.921Z,11.35
2023-05-22T17:49:50.907Z,15.20
2023-05-22T17:52:20.392Z,13.77
2023-05-22T17:54:49.867Z,14.57
2023-05-22T17:57:17.900Z,15.98
2023-05-22T17:59:45.920Z,16.20
2023-05-22T18:02:13.910Z,15.30
2023-05-22T18:04:41.850Z,15.27
2023-05-22T18:07:10.925Z,16.95
2023-05-22T18:09:40.352Z,16.92
2023-05-22T18:14:37.320Z,14.02
2023-05-22T18:17:05.573Z,17.20
2023-05-22T18:19:33.564Z,15.15
2023-05-22T18:22:01.573Z,13.73
2023-05-22T18:24:29.546Z,12.73
2023-05-22T18:26:58.844Z,14.98
2023-05-22T18:29:26.896Z,14.85
2023-05-22T18:31:54.925Z,17.42
2023-05-22T18:34:27.386Z,12.80
2023-05-22T18:36:55.398Z,13.93
2023-05-22T18:39:23.391Z,16.23
2023-05-22T18:41:51.347Z,15.18
2023-05-22T18:44:20.661Z,14.55
2023-05-22T18:46:48.955Z,17.60
2023-05-22T18:49:16.947Z,14.55
2023-05-22T18:51:46.329Z,15.90
2023-05-22T18:54:14.263Z,16.27
2023-05-22T18:56:42.161Z,14.82
2023-05-22T18:59:10.161Z,18.48
2023-05-22T19:01:39.556Z,18.85
2023-05-22T19:04:07.899Z,17.33
2023-05-22T19:06:36.526Z,18.30
2023-05-22T19:09:04.612Z,16.50
2023-05-22T19:11:32.542Z,16.25
2023-05-22T19:14:01.016Z,20.23
2023-05-22T19:16:29.053Z,16.23
2023-05-22T19:18:58.563Z,20.98
2023-05-22T19:21:26.794Z,18.60
2023-05-22T19:23:54.784Z,20.40
2023-05-22T19:26:22.744Z,22.55
2023-05-22T19:28:50.691Z,24.73
2023-05-22T19:31:18.676Z,23.55
2023-05-22T19:33:46.938Z,26.90
2023-05-22T19:36:16.221Z,24.10
2023-05-22T19:38:44.143Z,22.63
2023-05-22T19:41:12.138Z,20.33
2023-05-22T19:43:40.043Z,27.10
2023-05-22T19:46:08.881Z,25.25
2023-05-22T19:48:37.069Z,22.30
2023-05-22T19:51:05.237Z,23.05
2023-05-22T19:53:35.504Z,21.48
2023-05-22T19:56:03.941Z,22.10
2023-05-22T19:58:32.017Z,32.03
2023-05-22T20:01:00.128Z,23.10
2023-05-22T20:03:28.415Z,23.27
2023-05-22T20:05:56.611Z,25.83
2023-05-22T20:08:25.572Z,25.05
2023-05-22T20:10:55.118Z,27.40
2023-05-22T20:13:23.169Z,26.25
2023-05-22T20:15:53.276Z,19.55
2023-05-22T20:18:22.143Z,26.98
2023-05-22T20:20:50.113Z,26.52
2023-05-22T20:23:18.114Z,26.92
2023-05-22T20:25:46.081Z,21.75
2023-05-22T20:28:15.399Z,32.42
2023-05-22T20:30:43.354Z,27.05
2023-05-22T20:33:14.328Z,27.88
2023-05-22T20:35:43.181Z,26.92
2023-05-22T20:38:14.168Z,24.23
2023-05-22T20:40:46.625Z,22.10
2023-05-22T20:43:16.097Z,26.05
2023-05-22T20:45:45.780Z,20.20
2023-05-22T20:48:14.188Z,19.23
2023-05-22T20:50:42.585Z,20.73
2023-05-22T20:53:10.578Z,25.95
2023-05-22T20:55:38.725Z,22.08
2023-05-22T20:58:06.792Z,22.90
2023-05-22T21:00:36.198Z,24.13
2023-05-22T21:03:04.344Z,22.70
2023-05-22T21:05:32.436Z,21.17
2023-05-22T21:08:00.406Z,22.00
2023-05-22T21:10:28.376Z,24.13
2023-05-22T21:12:56.303Z,25.92
2023-05-22T21:15:24.293Z,25.40
2023-05-22T21:17:53.610Z,19.83
2023-05-22T21:20:21.596Z,21.25
2023-05-22T21:22:49.489Z,22.52
2023-05-22T21:25:17.558Z,21.38
2023-05-22T21:27:46.631Z,21.33
2023-05-22T21:30:15.132Z,20.92
2023-05-22T21:32:43.451Z,20.30
2023-05-22T21:35:13.029Z,18.95
2023-05-22T21:37:41.221Z,20.85
2023-05-22T21:40:10.072Z,17.38
2023-05-22T21:42:46.710Z,18.50
2023-05-22T21:45:15.241Z,21.83
2023-05-22T21:47:43.246Z,19.75
2023-05-22T21:50:13.187Z,21.15
2023-05-22T21:52:41.325Z,18.58
2023-05-22T21:55:09.789Z,19.88
2023-05-22T21:57:37.868Z,17.20
2023-05-22T22:00:06.551Z,18.27
2023-05-22T22:02:34.685Z,14.82
2023-05-22T22:05:03.016Z,16.75
2023-05-22T22:07:32.399Z,15.75
2023-05-22T22:10:00.708Z,13.95
2023-05-22T22:12:28.745Z,15.85
2023-05-22T22:14:58.570Z,12.77
2023-05-22T22:17:26.560Z,14.43
2023-05-22T22:19:56.836Z,14.15
2023-05-22T22:22:25.643Z,14.93
2023-05-22T22:24:54.982Z,15.55
2023-05-22T22:27:23.084Z,18.80
2023-05-22T22:29:51.086Z,18.15
2023-05-22T22:32:19.145Z,19.58
2023-05-22T22:34:47.066Z,23.15
2023-05-22T22:37:15.076Z,25.58
2023-05-22T22:39:43.047Z,18.70
2023-05-22T22:42:12.515Z,18.98
2023-05-22T22:44:40.505Z,21.10
2023-05-22T22:47:09.199Z,21.02
2023-05-22T22:49:38.322Z,17.80
2023-05-22T22:52:06.564Z,17.10
2023-05-22T22:54:34.525Z,19.25
2023-05-22T22:57:02.465Z,25.65
2023-05-22T22:59:31.806Z,23.02
2023-05-22T23:01:59.765Z,24.90
2023-05-22T23:04:28.243Z,24.00
2023-05-22T23:06:57.558Z,26.15
2023-05-22T23:09:25.535Z,28.88
2023-05-22T23:11:53.493Z,25.85
2023-05-22T23:14:21.468Z,32.03
2023-05-22T23:16:50.785Z,34.08
2023-05-22T23:19:18.812Z,31.35
2023-05-22T23:21:47.010Z,32.17
2023-05-22T23:24:15.083Z,34.00
2023-05-22T23:26:43.006Z,25.63
2023-05-22T23:29:10.945Z,30.95
2023-05-22T23:31:40.310Z,32.88
2023-05-22T23:34:09.813Z,32.28
2023-05-22T23:36:37.859Z,29.88
2023-05-22T23:39:05.841Z,38.20
2023-05-22T23:41:33.780Z,29.60
2023-05-22T23:44:01.993Z,34.15
2023-05-22T23:46:29.977Z,31.63
2023-05-22T23:48:57.931Z,36.15
2023-05-22T23:51:27.238Z,27.17
2023-05-22T23:53:55.181Z,29.63
2023-05-22T23:56:23.132Z,27.35
2023-05-22T23:58:51.100Z,26.08
